sensor_id;sensor_type;location;lat;lon;timestamp;temperature;humidity
35129;DHT22;21301;43.626;10.580;2022-07-10T00:01:51;22.30;99.90
35129;DHT22;21301;43.626;10.580;2022-07-10T00:04:17;22.30;99.90
35129;DHT22;21301;43.626;10.580;2022-07-10T00:06:46;22.30;99.90
35129;DHT22;21301;43.626;10.580;2022-07-10T00:09:15;22.20;99.90
35129;DHT22;21301;43.626;10.580;2022-07-10T00:11:41;22.20;99.90
35129;DHT22;21301;43.626;10.580;2022-07-10T00:14:08;22.10;99.90
35129;DHT22;21301;43.626;10.580;2022-07-10T00:16:34;22.00;99.90
35129;DHT22;21301;43.626;10.580;2022-07-10T00:19:00;22.00;99.90
35129;DHT22;21301;43.626;10.580;2022-07-10T00:21:26;21.90;99.90
35129;DHT22;21301;43.626;10.580;2022-07-10T00:23:52;22.00;99.90
35129;DHT22;21301;43.626;10.580;2022-07-10T00:26:18;21.80;99.90
35129;DHT22;21301;43.626;10.580;2022-07-10T00:28:44;21.70;99.90
35129;DHT22;21301;43.626;10.580;2022-07-10T00:31:09;21.70;99.90
35129;DHT22;21301;43.626;10.580;2022-07-10T00:33:37;21.70;99.90
35129;DHT22;21301;43.626;10.580;2022-07-10T00:36:04;21.60;99.90
35129;DHT22;21301;43.626;10.580;2022-07-10T00:38:30;21.70;99.90
35129;DHT22;21301;43.626;10.580;2022-07-10T00:40:56;21.70;99.90
35129;DHT22;21301;43.626;10.580;2022-07-10T00:43:22;21.50;99.90
35129;DHT22;21301;43.626;10.580;2022-07-10T00:45:48;21.50;99.90
35129;DHT22;21301;43.626;10.580;2022-07-10T00:48:14;21.10;99.90
35129;DHT22;21301;43.626;10.580;2022-07-10T00:50:44;21.10;99.90
35129;DHT22;21301;43.626;10.580;2022-07-10T00:53:11;21.40;99.90
35129;DHT22;21301;43.626;10.580;2022-07-10T00:55:39;21.30;99.90
35129;DHT22;21301;43.626;10.580;2022-07-10T00:58:08;21.40;99.90
35129;DHT22;21301;43.626;10.580;2022-07-10T01:00:35;21.40;99.90
35129;DHT22;21301;43.626;10.580;2022-07-10T01:03:03;21.40;99.90
35129;DHT22;21301;43.626;10.580;2022-07-10T01:05:29;21.40;99.90
35129;DHT22;21301;43.626;10.580;2022-07-10T01:07:55;21.30;99.90
35129;DHT22;21301;43.626;10.580;2022-07-10T01:10:21;21.30;99.90
35129;DHT22;21301;43.626;10.580;2022-07-10T01:12:47;21.20;99.90
35129;DHT22;21301;43.626;10.580;2022-07-10T01:15:13;21.20;99.90
35129;DHT22;21301;43.626;10.580;2022-07-10T01:17:39;21.20;99.90
35129;DHT22;21301;43.626;10.580;2022-07-10T01:20:07;21.10;99.90
35129;DHT22;21301;43.626;10.580;2022-07-10T01:22:33;21.10;99.90
35129;DHT22;21301;43.626;10.580;2022-07-10T01:24:59;21.10;99.90
35129;DHT22;21301;43.626;10.580;2022-07-10T01:27:24;21.10;99.90
35129;DHT22;21301;43.626;10.580;2022-07-10T01:29:51;21.00;99.90
35129;DHT22;21301;43.626;10.580;2022-07-10T01:32:18;21.00;99.90
35129;DHT22;21301;43.626;10.580;2022-07-10T01:34:44;21.10;99.90
35129;DHT22;21301;43.626;10.580;2022-07-10T01:37:11;21.00;99.90
35129;DHT22;21301;43.626;10.580;2022-07-10T01:39:36;21.00;99.90
35129;DHT22;21301;43.626;10.580;2022-07-10T01:42:02;21.00;99.90
35129;DHT22;21301;43.626;10.580;2022-07-10T01:44:28;20.90;99.90
35129;DHT22;21301;43.626;10.580;2022-07-10T01:46:54;20.90;99.90
35129;DHT22;21301;43.626;10.580;2022-07-10T01:49:20;20.70;99.90
35129;DHT22;21301;43.626;10.580;2022-07-10T01:51:45;20.60;99.90
35129;DHT22;21301;43.626;10.580;2022-07-10T01:54:11;20.50;99.90
35129;DHT22;21301;43.626;10.580;2022-07-10T01:56:37;20.50;99.90
35129;DHT22;21301;43.626;10.580;2022-07-10T01:59:04;20.60;99.90
35129;DHT22;21301;43.626;10.580;2022-07-10T02:01:30;20.50;99.90
35129;DHT22;21301;43.626;10.580;2022-07-10T02:03:56;20.50;99.90
35129;DHT22;21301;43.626;10.580;2022-07-10T02:06:40;20.60;99.90
35129;DHT22;21301;43.626;10.580;2022-07-10T02:09:06;20.50;99.90
35129;DHT22;21301;43.626;10.580;2022-07-10T02:11:32;20.50;99.90
35129;DHT22;21301;43.626;10.580;2022-07-10T02:13:58;20.50;99.90
35129;DHT22;21301;43.626;10.580;2022-07-10T02:16:23;20.50;99.90
35129;DHT22;21301;43.626;10.580;2022-07-10T02:18:49;20.40;99.90
35129;DHT22;21301;43.626;10.580;2022-07-10T02:21:15;20.50;99.90
35129;DHT22;21301;43.626;10.580;2022-07-10T02:23:41;20.50;99.90
35129;DHT22;21301;43.626;10.580;2022-07-10T02:26:07;20.40;99.90
35129;DHT22;21301;43.626;10.580;2022-07-10T02:28:33;20.50;99.90
35129;DHT22;21301;43.626;10.580;2022-07-10T02:30:59;20.60;99.90
35129;DHT22;21301;43.626;10.580;2022-07-10T02:33:25;20.40;99.90
35129;DHT22;21301;43.626;10.580;2022-07-10T02:35:51;20.40;99.90
35129;DHT22;21301;43.626;10.580;2022-07-10T02:38:17;20.50;99.90
35129;DHT22;21301;43.626;10.580;2022-07-10T02:40:42;20.30;99.90
35129;DHT22;21301;43.626;10.580;2022-07-10T02:43:08;20.20;99.90
35129;DHT22;21301;43.626;10.580;2022-07-10T02:45:34;20.20;99.90
35129;DHT22;21301;43.626;10.580;2022-07-10T02:48:00;20.20;99.90
35129;DHT22;21301;43.626;10.580;2022-07-10T02:50:26;20.30;99.90
35129;DHT22;21301;43.626;10.580;2022-07-10T02:52:52;20.30;99.90
35129;DHT22;21301;43.626;10.580;2022-07-10T02:55:17;20.30;99.90
35129;DHT22;21301;43.626;10.580;2022-07-10T02:57:43;20.20;99.90
35129;DHT22;21301;43.626;10.580;2022-07-10T03:00:10;20.20;99.90
35129;DHT22;21301;43.626;10.580;2022-07-10T03:02:37;20.30;99.90
35129;DHT22;21301;43.626;10.580;2022-07-10T03:05:03;20.20;99.90
35129;DHT22;21301;43.626;10.580;2022-07-10T03:07:28;20.00;99.90
35129;DHT22;21301;43.626;10.580;2022-07-10T03:09:54;19.90;99.90
35129;DHT22;21301;43.626;10.580;2022-07-10T03:12:20;19.80;99.90
35129;DHT22;21301;43.626;10.580;2022-07-10T03:14:46;19.70;99.90
35129;DHT22;21301;43.626;10.580;2022-07-10T03:17:12;19.60;99.90
35129;DHT22;21301;43.626;10.580;2022-07-10T03:19:38;19.40;99.90
35129;DHT22;21301;43.626;10.580;2022-07-10T03:22:03;19.30;99.90
35129;DHT22;21301;43.626;10.580;2022-07-10T03:24:29;19.30;99.90
35129;DHT22;21301;43.626;10.580;2022-07-10T03:26:55;19.30;99.90
35129;DHT22;21301;43.626;10.580;2022-07-10T03:29:21;19.10;99.90
35129;DHT22;21301;43.626;10.580;2022-07-10T03:31:47;19.00;99.90
35129;DHT22;21301;43.626;10.580;2022-07-10T03:34:12;18.90;99.90
35129;DHT22;21301;43.626;10.580;2022-07-10T03:36:38;18.90;99.90
35129;DHT22;21301;43.626;10.580;2022-07-10T03:39:05;18.80;99.90
35129;DHT22;21301;43.626;10.580;2022-07-10T03:41:30;18.70;99.90
35129;DHT22;21301;43.626;10.580;2022-07-10T03:43:56;18.80;99.90
35129;DHT22;21301;43.626;10.580;2022-07-10T03:46:22;18.90;99.90
35129;DHT22;21301;43.626;10.580;2022-07-10T03:48:48;18.90;99.90
35129;DHT22;21301;43.626;10.580;2022-07-10T03:51:13;18.90;99.90
35129;DHT22;21301;43.626;10.580;2022-07-10T03:53:39;18.90;99.90
35129;DHT22;21301;43.626;10.580;2022-07-10T03:56:05;18.90;99.90
35129;DHT22;21301;43.626;10.580;2022-07-10T03:58:31;18.90;99.90
35129;DHT22;21301;43.626;10.580;2022-07-10T04:00:57;19.00;99.90
35129;DHT22;21301;43.626;10.580;2022-07-10T04:03:22;19.20;99.90
35129;DHT22;21301;43.626;10.580;2022-07-10T04:05:48;19.30;99.90
35129;DHT22;21301;43.626;10.580;2022-07-10T04:08:14;19.30;99.90
35129;DHT22;21301;43.626;10.580;2022-07-10T04:10:40;19.40;99.90
35129;DHT22;21301;43.626;10.580;2022-07-10T04:13:05;19.20;99.90
35129;DHT22;21301;43.626;10.580;2022-07-10T04:15:31;19.00;99.90
35129;DHT22;21301;43.626;10.580;2022-07-10T04:17:57;18.90;99.90
35129;DHT22;21301;43.626;10.580;2022-07-10T04:20:23;18.80;99.90
35129;DHT22;21301;43.626;10.580;2022-07-10T04:22:50;18.80;99.90
35129;DHT22;21301;43.626;10.580;2022-07-10T04:25:16;18.80;99.90
35129;DHT22;21301;43.626;10.580;2022-07-10T04:27:42;19.10;99.90
35129;DHT22;21301;43.626;10.580;2022-07-10T04:30:08;19.20;99.90
35129;DHT22;21301;43.626;10.580;2022-07-10T04:32:33;19.50;99.90
35129;DHT22;21301;43.626;10.580;2022-07-10T04:34:59;19.60;99.90
35129;DHT22;21301;43.626;10.580;2022-07-10T04:37:26;19.90;99.90
35129;DHT22;21301;43.626;10.580;2022-07-10T04:39:52;19.90;99.90
35129;DHT22;21301;43.626;10.580;2022-07-10T04:42:18;20.00;99.90
35129;DHT22;21301;43.626;10.580;2022-07-10T04:44:43;20.10;99.90
35129;DHT22;21301;43.626;10.580;2022-07-10T04:47:09;20.10;99.90
35129;DHT22;21301;43.626;10.580;2022-07-10T04:49:35;20.20;99.90
35129;DHT22;21301;43.626;10.580;2022-07-10T04:52:01;20.20;99.90
35129;DHT22;21301;43.626;10.580;2022-07-10T04:54:27;20.10;99.90
35129;DHT22;21301;43.626;10.580;2022-07-10T04:56:53;20.30;99.90
35129;DHT22;21301;43.626;10.580;2022-07-10T04:59:18;20.60;99.90
35129;DHT22;21301;43.626;10.580;2022-07-10T05:01:44;20.70;99.90
35129;DHT22;21301;43.626;10.580;2022-07-10T05:04:10;20.80;99.90
35129;DHT22;21301;43.626;10.580;2022-07-10T05:06:36;21.00;99.90
35129;DHT22;21301;43.626;10.580;2022-07-10T05:09:03;21.20;99.90
35129;DHT22;21301;43.626;10.580;2022-07-10T05:11:29;21.10;99.90
35129;DHT22;21301;43.626;10.580;2022-07-10T05:13:55;21.30;99.90
35129;DHT22;21301;43.626;10.580;2022-07-10T05:16:21;21.50;99.90
35129;DHT22;21301;43.626;10.580;2022-07-10T05:18:47;21.70;99.90
35129;DHT22;21301;43.626;10.580;2022-07-10T05:21:13;22.00;99.90
35129;DHT22;21301;43.626;10.580;2022-07-10T05:23:39;22.10;99.90
35129;DHT22;21301;43.626;10.580;2022-07-10T05:26:05;22.20;99.90
35129;DHT22;21301;43.626;10.580;2022-07-10T05:28:32;22.50;99.90
35129;DHT22;21301;43.626;10.580;2022-07-10T05:30:58;22.80;99.90
35129;DHT22;21301;43.626;10.580;2022-07-10T05:33:23;23.10;99.90
35129;DHT22;21301;43.626;10.580;2022-07-10T05:35:49;23.30;99.90
35129;DHT22;21301;43.626;10.580;2022-07-10T05:38:15;23.30;99.90
35129;DHT22;21301;43.626;10.580;2022-07-10T05:40:43;23.60;99.90
35129;DHT22;21301;43.626;10.580;2022-07-10T05:43:09;23.60;99.70
35129;DHT22;21301;43.626;10.580;2022-07-10T05:45:35;23.80;99.40
35129;DHT22;21301;43.626;10.580;2022-07-10T05:48:01;23.80;99.20
35129;DHT22;21301;43.626;10.580;2022-07-10T05:50:27;24.00;99.20
35129;DHT22;21301;43.626;10.580;2022-07-10T05:52:53;23.90;98.80
35129;DHT22;21301;43.626;10.580;2022-07-10T05:55:18;24.00;98.70
35129;DHT22;21301;43.626;10.580;2022-07-10T05:57:44;24.30;98.50
35129;DHT22;21301;43.626;10.580;2022-07-10T06:00:11;24.50;98.30
35129;DHT22;21301;43.626;10.580;2022-07-10T06:02:39;24.70;97.80
35129;DHT22;21301;43.626;10.580;2022-07-10T06:05:06;24.80;97.70
35129;DHT22;21301;43.626;10.580;2022-07-10T06:07:31;25.10;97.40
35129;DHT22;21301;43.626;10.580;2022-07-10T06:09:57;25.70;96.90
35129;DHT22;21301;43.626;10.580;2022-07-10T06:12:23;25.70;96.70
35129;DHT22;21301;43.626;10.580;2022-07-10T06:14:49;25.60;96.30
35129;DHT22;21301;43.626;10.580;2022-07-10T06:17:15;25.90;96.30
35129;DHT22;21301;43.626;10.580;2022-07-10T06:19:41;25.90;96.10
35129;DHT22;21301;43.626;10.580;2022-07-10T06:22:07;26.40;95.90
35129;DHT22;21301;43.626;10.580;2022-07-10T06:24:51;26.40;95.60
35129;DHT22;21301;43.626;10.580;2022-07-10T06:27:17;26.20;94.90
35129;DHT22;21301;43.626;10.580;2022-07-10T06:29:43;26.40;94.40
35129;DHT22;21301;43.626;10.580;2022-07-10T06:32:09;26.20;93.80
35129;DHT22;21301;43.626;10.580;2022-07-10T06:34:35;26.10;93.30
35129;DHT22;21301;43.626;10.580;2022-07-10T06:37:01;26.40;93.50
35129;DHT22;21301;43.626;10.580;2022-07-10T06:39:28;26.80;93.60
35129;DHT22;21301;43.626;10.580;2022-07-10T06:41:56;27.00;93.50
35129;DHT22;21301;43.626;10.580;2022-07-10T06:44:23;27.10;93.30
35129;DHT22;21301;43.626;10.580;2022-07-10T06:46:49;27.40;93.20
35129;DHT22;21301;43.626;10.580;2022-07-10T06:49:34;27.40;92.90
35129;DHT22;21301;43.626;10.580;2022-07-10T06:52:00;27.60;92.70
35129;DHT22;21301;43.626;10.580;2022-07-10T06:54:27;27.80;92.50
35129;DHT22;21301;43.626;10.580;2022-07-10T06:56:53;27.80;92.00
35129;DHT22;21301;43.626;10.580;2022-07-10T06:59:19;27.80;91.60
35129;DHT22;21301;43.626;10.580;2022-07-10T07:01:45;27.70;91.00
35129;DHT22;21301;43.626;10.580;2022-07-10T07:04:11;27.90;90.80
35129;DHT22;21301;43.626;10.580;2022-07-10T07:06:36;27.80;90.50
35129;DHT22;21301;43.626;10.580;2022-07-10T07:09:02;27.90;89.80
35129;DHT22;21301;43.626;10.580;2022-07-10T07:11:28;28.00;89.40
35129;DHT22;21301;43.626;10.580;2022-07-10T07:13:54;28.50;88.90
35129;DHT22;21301;43.626;10.580;2022-07-10T07:16:20;28.50;88.10
35129;DHT22;21301;43.626;10.580;2022-07-10T07:18:52;28.60;88.30
35129;DHT22;21301;43.626;10.580;2022-07-10T07:21:21;28.40;85.50
35129;DHT22;21301;43.626;10.580;2022-07-10T07:24:05;28.60;88.30
35129;DHT22;21301;43.626;10.580;2022-07-10T07:26:31;28.60;88.10
35129;DHT22;21301;43.626;10.580;2022-07-10T07:28:57;28.60;88.00
35129;DHT22;21301;43.626;10.580;2022-07-10T07:31:22;29.10;88.30
35129;DHT22;21301;43.626;10.580;2022-07-10T07:33:48;29.20;87.80
35129;DHT22;21301;43.626;10.580;2022-07-10T07:36:14;29.30;87.40
35129;DHT22;21301;43.626;10.580;2022-07-10T07:38:40;29.30;87.10
35129;DHT22;21301;43.626;10.580;2022-07-10T07:41:05;29.20;86.90
35129;DHT22;21301;43.626;10.580;2022-07-10T07:43:31;29.30;86.40
35129;DHT22;21301;43.626;10.580;2022-07-10T07:45:57;29.10;85.60
35129;DHT22;21301;43.626;10.580;2022-07-10T07:48:23;29.30;85.20
35129;DHT22;21301;43.626;10.580;2022-07-10T07:50:48;29.40;84.90
35129;DHT22;21301;43.626;10.580;2022-07-10T07:53:14;29.30;84.90
35129;DHT22;21301;43.626;10.580;2022-07-10T07:55:40;29.40;84.50
35129;DHT22;21301;43.626;10.580;2022-07-10T07:58:06;29.20;82.80
35129;DHT22;21301;43.626;10.580;2022-07-10T08:00:32;29.30;83.50
35129;DHT22;21301;43.626;10.580;2022-07-10T08:02:58;29.60;83.00
35129;DHT22;21301;43.626;10.580;2022-07-10T08:05:26;29.90;82.50
35129;DHT22;21301;43.626;10.580;2022-07-10T08:07:57;30.00;82.00
35129;DHT22;21301;43.626;10.580;2022-07-10T08:10:25;30.30;80.60
35129;DHT22;21301;43.626;10.580;2022-07-10T08:12:54;30.50;81.60
35129;DHT22;21301;43.626;10.580;2022-07-10T08:15:21;30.80;81.10
35129;DHT22;21301;43.626;10.580;2022-07-10T08:17:52;31.00;81.20
35129;DHT22;21301;43.626;10.580;2022-07-10T08:20:19;31.40;79.00
35129;DHT22;21301;43.626;10.580;2022-07-10T08:22:45;31.30;79.60
35129;DHT22;21301;43.626;10.580;2022-07-10T08:25:12;31.20;78.80
35129;DHT22;21301;43.626;10.580;2022-07-10T08:27:38;31.00;77.10
35129;DHT22;21301;43.626;10.580;2022-07-10T08:30:05;31.30;77.40
35129;DHT22;21301;43.626;10.580;2022-07-10T08:32:31;31.60;77.30
35129;DHT22;21301;43.626;10.580;2022-07-10T08:34:57;31.80;77.00
35129;DHT22;21301;43.626;10.580;2022-07-10T08:37:24;31.50;77.10
35129;DHT22;21301;43.626;10.580;2022-07-10T08:39:51;31.80;76.90
35129;DHT22;21301;43.626;10.580;2022-07-10T08:42:18;32.10;76.80
35129;DHT22;21301;43.626;10.580;2022-07-10T08:44:44;31.70;76.50
35129;DHT22;21301;43.626;10.580;2022-07-10T08:47:10;31.50;76.50
35129;DHT22;21301;43.626;10.580;2022-07-10T08:49:37;31.40;76.50
35129;DHT22;21301;43.626;10.580;2022-07-10T08:52:05;32.20;76.10
35129;DHT22;21301;43.626;10.580;2022-07-10T08:54:32;32.20;75.50
35129;DHT22;21301;43.626;10.580;2022-07-10T08:57:00;32.30;75.70
35129;DHT22;21301;43.626;10.580;2022-07-10T08:59:27;32.00;74.50
35129;DHT22;21301;43.626;10.580;2022-07-10T09:01:53;31.90;75.00
35129;DHT22;21301;43.626;10.580;2022-07-10T09:04:21;31.70;75.00
35129;DHT22;21301;43.626;10.580;2022-07-10T09:06:47;32.20;74.40
35129;DHT22;21301;43.626;10.580;2022-07-10T09:09:14;32.30;74.30
35129;DHT22;21301;43.626;10.580;2022-07-10T09:11:40;32.50;74.20
35129;DHT22;21301;43.626;10.580;2022-07-10T09:14:09;32.70;74.60
35129;DHT22;21301;43.626;10.580;2022-07-10T09:16:39;32.70;73.90
35129;DHT22;21301;43.626;10.580;2022-07-10T09:19:25;32.60;73.90
35129;DHT22;21301;43.626;10.580;2022-07-10T09:21:52;32.60;72.10
35129;DHT22;21301;43.626;10.580;2022-07-10T09:24:19;33.30;73.60
35129;DHT22;21301;43.626;10.580;2022-07-10T09:26:59;33.90;72.70
35129;DHT22;21301;43.626;10.580;2022-07-10T09:29:26;33.90;71.30
35129;DHT22;21301;43.626;10.580;2022-07-10T09:31:56;33.80;72.10
35129;DHT22;21301;43.626;10.580;2022-07-10T09:37:24;33.80;68.40
35129;DHT22;21301;43.626;10.580;2022-07-10T09:42:30;33.40;68.50
35129;DHT22;21301;43.626;10.580;2022-07-10T09:47:57;33.30;66.20
35129;DHT22;21301;43.626;10.580;2022-07-10T09:53:04;33.30;67.90
35129;DHT22;21301;43.626;10.580;2022-07-10T09:55:34;33.70;67.20
35129;DHT22;21301;43.626;10.580;2022-07-10T09:58:05;33.40;69.00
35129;DHT22;21301;43.626;10.580;2022-07-10T10:00:39;34.00;68.90
35129;DHT22;21301;43.626;10.580;2022-07-10T10:03:11;33.40;67.50
35129;DHT22;21301;43.626;10.580;2022-07-10T10:05:39;33.30;68.70
35129;DHT22;21301;43.626;10.580;2022-07-10T10:11:01;33.30;65.90
35129;DHT22;21301;43.626;10.580;2022-07-10T10:13:28;33.20;67.00
35129;DHT22;21301;43.626;10.580;2022-07-10T10:15:56;32.80;66.80
35129;DHT22;21301;43.626;10.580;2022-07-10T10:18:24;33.30;67.10
35129;DHT22;21301;43.626;10.580;2022-07-10T10:20:52;33.50;67.60
35129;DHT22;21301;43.626;10.580;2022-07-10T10:23:20;33.50;66.90
35129;DHT22;21301;43.626;10.580;2022-07-10T10:25:47;34.10;67.00
35129;DHT22;21301;43.626;10.580;2022-07-10T10:28:14;33.40;66.30
35129;DHT22;21301;43.626;10.580;2022-07-10T10:30:43;33.30;66.80
35129;DHT22;21301;43.626;10.580;2022-07-10T10:36:01;33.60;66.10
35129;DHT22;21301;43.626;10.580;2022-07-10T10:41:27;34.40;65.10
35129;DHT22;21301;43.626;10.580;2022-07-10T10:46:35;33.70;64.60
35129;DHT22;21301;43.626;10.580;2022-07-10T10:49:20;34.00;66.00
35129;DHT22;21301;43.626;10.580;2022-07-10T10:52:09;34.10;65.60
35129;DHT22;21301;43.626;10.580;2022-07-10T11:00:02;34.00;66.20
35129;DHT22;21301;43.626;10.580;2022-07-10T11:02:34;34.40;66.80
35129;DHT22;21301;43.626;10.580;2022-07-10T11:08:38;33.90;65.90
35129;DHT22;21301;43.626;10.580;2022-07-10T11:13:58;34.20;65.90
35129;DHT22;21301;43.626;10.580;2022-07-10T11:16:24;34.10;66.80
35129;DHT22;21301;43.626;10.580;2022-07-10T11:18:54;34.80;66.80
35129;DHT22;21301;43.626;10.580;2022-07-10T11:21:23;35.10;66.50
35129;DHT22;21301;43.626;10.580;2022-07-10T11:27:11;34.80;66.50
35129;DHT22;21301;43.626;10.580;2022-07-10T11:29:41;34.50;67.60
35129;DHT22;21301;43.626;10.580;2022-07-10T11:32:07;34.50;67.60
35129;DHT22;21301;43.626;10.580;2022-07-10T11:34:36;34.30;67.20
35129;DHT22;21301;43.626;10.580;2022-07-10T11:37:13;34.70;67.50
35129;DHT22;21301;43.626;10.580;2022-07-10T11:39:38;34.80;67.00
35129;DHT22;21301;43.626;10.580;2022-07-10T11:42:04;34.90;66.90
35129;DHT22;21301;43.626;10.580;2022-07-10T11:44:30;35.10;66.70
35129;DHT22;21301;43.626;10.580;2022-07-10T11:46:57;35.00;66.70
35129;DHT22;21301;43.626;10.580;2022-07-10T11:49:23;34.80;66.20
35129;DHT22;21301;43.626;10.580;2022-07-10T11:51:50;35.00;66.60
35129;DHT22;21301;43.626;10.580;2022-07-10T11:54:17;34.80;68.10
35129;DHT22;21301;43.626;10.580;2022-07-10T11:56:49;34.80;69.50
35129;DHT22;21301;43.626;10.580;2022-07-10T11:59:15;34.70;68.30
35129;DHT22;21301;43.626;10.580;2022-07-10T12:04:08;34.20;69.50
35129;DHT22;21301;43.626;10.580;2022-07-10T12:06:36;34.10;70.30
35129;DHT22;21301;43.626;10.580;2022-07-10T12:09:07;33.50;70.30
35129;DHT22;21301;43.626;10.580;2022-07-10T12:11:33;33.30;71.00
35129;DHT22;21301;43.626;10.580;2022-07-10T12:14:19;32.80;71.10
35129;DHT22;21301;43.626;10.580;2022-07-10T12:16:50;33.30;71.10
35129;DHT22;21301;43.626;10.580;2022-07-10T12:19:24;33.60;71.20
35129;DHT22;21301;43.626;10.580;2022-07-10T12:21:51;33.70;71.10
35129;DHT22;21301;43.626;10.580;2022-07-10T12:24:18;33.50;71.00
35129;DHT22;21301;43.626;10.580;2022-07-10T12:26:49;33.10;70.20
35129;DHT22;21301;43.626;10.580;2022-07-10T12:29:25;32.90;70.80
35129;DHT22;21301;43.626;10.580;2022-07-10T12:32:01;33.30;70.90
35129;DHT22;21301;43.626;10.580;2022-07-10T12:34:34;32.90;69.10
35129;DHT22;21301;43.626;10.580;2022-07-10T12:37:10;32.90;70.00
35129;DHT22;21301;43.626;10.580;2022-07-10T12:39:37;33.20;69.90
35129;DHT22;21301;43.626;10.580;2022-07-10T12:42:06;33.40;69.90
35129;DHT22;21301;43.626;10.580;2022-07-10T12:44:43;33.10;68.80
35129;DHT22;21301;43.626;10.580;2022-07-10T12:47:15;33.00;68.20
35129;DHT22;21301;43.626;10.580;2022-07-10T12:50:02;33.10;68.60
35129;DHT22;21301;43.626;10.580;2022-07-10T12:55:24;32.40;67.50
35129;DHT22;21301;43.626;10.580;2022-07-10T12:58:07;32.80;67.30
35129;DHT22;21301;43.626;10.580;2022-07-10T13:00:36;33.40;67.20
35129;DHT22;21301;43.626;10.580;2022-07-10T13:03:10;32.90;67.70
35129;DHT22;21301;43.626;10.580;2022-07-10T13:05:42;32.70;66.30
35129;DHT22;21301;43.626;10.580;2022-07-10T13:08:12;33.00;66.90
35129;DHT22;21301;43.626;10.580;2022-07-10T13:10:41;32.50;66.20
35129;DHT22;21301;43.626;10.580;2022-07-10T13:13:07;32.50;67.40
35129;DHT22;21301;43.626;10.580;2022-07-10T13:15:34;32.60;67.40
35129;DHT22;21301;43.626;10.580;2022-07-10T13:18:14;32.40;67.00
35129;DHT22;21301;43.626;10.580;2022-07-10T13:20:43;32.50;67.90
35129;DHT22;21301;43.626;10.580;2022-07-10T13:23:09;32.90;68.20
35129;DHT22;21301;43.626;10.580;2022-07-10T13:25:36;32.70;66.40
35129;DHT22;21301;43.626;10.580;2022-07-10T13:28:02;32.80;66.40
35129;DHT22;21301;43.626;10.580;2022-07-10T13:30:28;32.90;67.80
35129;DHT22;21301;43.626;10.580;2022-07-10T13:32:54;32.80;67.10
35129;DHT22;21301;43.626;10.580;2022-07-10T13:35:19;32.60;65.80
35129;DHT22;21301;43.626;10.580;2022-07-10T13:37:45;32.70;67.10
35129;DHT22;21301;43.626;10.580;2022-07-10T13:40:12;32.90;67.00
35129;DHT22;21301;43.626;10.580;2022-07-10T13:42:38;33.00;66.80
35129;DHT22;21301;43.626;10.580;2022-07-10T13:45:04;33.00;65.90
35129;DHT22;21301;43.626;10.580;2022-07-10T13:47:30;32.50;65.60
35129;DHT22;21301;43.626;10.580;2022-07-10T13:49:56;32.70;66.10
35129;DHT22;21301;43.626;10.580;2022-07-10T13:52:22;32.70;66.50
35129;DHT22;21301;43.626;10.580;2022-07-10T13:54:48;32.50;66.20
35129;DHT22;21301;43.626;10.580;2022-07-10T13:57:13;32.40;66.30
35129;DHT22;21301;43.626;10.580;2022-07-10T13:59:39;32.70;66.50
35129;DHT22;21301;43.626;10.580;2022-07-10T14:02:05;32.70;66.70
35129;DHT22;21301;43.626;10.580;2022-07-10T14:04:31;32.50;66.90
35129;DHT22;21301;43.626;10.580;2022-07-10T14:06:57;32.70;67.10
35129;DHT22;21301;43.626;10.580;2022-07-10T14:09:23;32.70;67.00
35129;DHT22;21301;43.626;10.580;2022-07-10T14:11:50;32.60;66.30
35129;DHT22;21301;43.626;10.580;2022-07-10T14:14:16;32.30;66.80
35129;DHT22;21301;43.626;10.580;2022-07-10T14:16:41;32.60;67.00
35129;DHT22;21301;43.626;10.580;2022-07-10T14:19:09;32.50;66.90
35129;DHT22;21301;43.626;10.580;2022-07-10T14:21:35;32.40;67.40
35129;DHT22;21301;43.626;10.580;2022-07-10T14:24:02;32.40;66.80
35129;DHT22;21301;43.626;10.580;2022-07-10T14:26:28;32.40;66.80
35129;DHT22;21301;43.626;10.580;2022-07-10T14:28:54;32.50;67.10
35129;DHT22;21301;43.626;10.580;2022-07-10T14:31:20;32.30;66.30
35129;DHT22;21301;43.626;10.580;2022-07-10T14:33:46;32.50;67.50
35129;DHT22;21301;43.626;10.580;2022-07-10T14:36:12;32.70;66.90
35129;DHT22;21301;43.626;10.580;2022-07-10T14:38:38;32.70;66.20
35129;DHT22;21301;43.626;10.580;2022-07-10T14:41:04;32.50;66.20
35129;DHT22;21301;43.626;10.580;2022-07-10T14:43:31;32.20;65.70
35129;DHT22;21301;43.626;10.580;2022-07-10T14:45:59;32.10;66.20
35129;DHT22;21301;43.626;10.580;2022-07-10T14:48:32;32.30;66.50
35129;DHT22;21301;43.626;10.580;2022-07-10T14:51:00;32.40;66.40
35129;DHT22;21301;43.626;10.580;2022-07-10T14:53:26;32.30;66.40
35129;DHT22;21301;43.626;10.580;2022-07-10T14:55:52;32.50;66.00
35129;DHT22;21301;43.626;10.580;2022-07-10T14:58:18;32.40;66.20
35129;DHT22;21301;43.626;10.580;2022-07-10T15:00:43;32.10;65.90
35129;DHT22;21301;43.626;10.580;2022-07-10T15:03:09;31.80;64.90
35129;DHT22;21301;43.626;10.580;2022-07-10T15:05:35;31.80;65.10
35129;DHT22;21301;43.626;10.580;2022-07-10T15:08:01;31.70;66.60
35129;DHT22;21301;43.626;10.580;2022-07-10T15:10:29;31.70;66.50
35129;DHT22;21301;43.626;10.580;2022-07-10T15:12:55;31.60;65.90
35129;DHT22;21301;43.626;10.580;2022-07-10T15:15:21;31.60;65.80
35129;DHT22;21301;43.626;10.580;2022-07-10T15:17:47;31.70;66.20
35129;DHT22;21301;43.626;10.580;2022-07-10T15:20:14;31.90;66.20
35129;DHT22;21301;43.626;10.580;2022-07-10T15:22:40;32.10;66.30
35129;DHT22;21301;43.626;10.580;2022-07-10T15:25:06;32.00;66.50
35129;DHT22;21301;43.626;10.580;2022-07-10T15:27:32;31.70;65.90
35129;DHT22;21301;43.626;10.580;2022-07-10T15:29:58;31.90;66.40
35129;DHT22;21301;43.626;10.580;2022-07-10T15:32:24;31.80;65.40
35129;DHT22;21301;43.626;10.580;2022-07-10T15:34:50;31.60;65.50
35129;DHT22;21301;43.626;10.580;2022-07-10T15:37:16;31.60;65.40
35129;DHT22;21301;43.626;10.580;2022-07-10T15:39:42;31.50;65.60
35129;DHT22;21301;43.626;10.580;2022-07-10T15:42:12;31.40;65.90
35129;DHT22;21301;43.626;10.580;2022-07-10T15:44:38;31.40;65.70
35129;DHT22;21301;43.626;10.580;2022-07-10T15:47:04;31.50;66.20
35129;DHT22;21301;43.626;10.580;2022-07-10T15:49:30;31.40;65.40
35129;DHT22;21301;43.626;10.580;2022-07-10T15:51:56;31.40;66.10
35129;DHT22;21301;43.626;10.580;2022-07-10T15:54:25;31.60;66.80
35129;DHT22;21301;43.626;10.580;2022-07-10T15:56:51;31.60;66.70
35129;DHT22;21301;43.626;10.580;2022-07-10T15:59:17;31.70;67.00